Time;durP1;ratioP1;P1;durP2;ratioP2;P2;SDS_P1;SDS_P2;PMS_P1;PMS_P2;Temp;Humidity;BMP_temperature;BMP_pressure;BME280_temperature;BME280_humidity;BME280_pressure;Samples;Min_cycle;Max_cycle;Signal;HPM_P1;HPM_P2
2021/03/30 00:00:07;;;;;;;27.48;10.00;;;;;;;-1.25;71.59;102335.31;1719663;82;21170;-41
2021/03/30 00:02:35;;;;;;;22.87;10.05;;;;;;;-1.34;71.75;102334.77;1719702;83;20951;-41
2021/03/30 00:05:04;;;;;;;19.90;10.05;;;;;;;-1.42;71.98;102340.64;1719715;83;20983;-42
2021/03/30 00:07:31;;;;;;;29.00;9.83;;;;;;;-1.47;72.07;102342.03;1719727;83;21384;-43
2021/03/30 00:09:59;;;;;;;24.30;9.55;;;;;;;-1.50;72.25;102350.73;1719694;83;21039;-43
2021/03/30 00:12:27;;;;;;;21.42;9.83;;;;;;;-1.52;72.29;102351.91;1719702;82;21026;-42
2021/03/30 00:14:56;;;;;;;27.77;9.98;;;;;;;-1.54;72.24;102357.28;1719472;83;21614;-42
2021/03/30 00:17:24;;;;;;;23.42;9.80;;;;;;;-1.56;72.36;102354.15;1719719;83;21019;-42
2021/03/30 00:19:51;;;;;;;43.63;12.00;;;;;;;-1.61;72.54;102364.05;1719658;83;21443;-42
2021/03/30 00:22:19;;;;;;;28.15;11.65;;;;;;;-1.67;72.72;102355.64;1719613;83;20955;-42
2021/03/30 00:24:47;;;;;;;23.87;11.35;;;;;;;-1.71;72.68;102357.52;1719681;83;21460;-42
2021/03/30 00:27:14;;;;;;;31.48;10.75;;;;;;;-1.75;72.97;102355.57;1719755;83;20963;-42
2021/03/30 00:29:46;;;;;;;21.77;8.73;;;;;;;-1.77;73.81;102363.08;1719677;82;20958;-43
2021/03/30 00:32:14;;;;;;;26.52;9.48;;;;;;;-1.79;74.27;102364.64;1719711;83;21368;-42
2021/03/30 00:34:41;;;;;;;32.00;10.55;;;;;;;-1.84;74.42;102368.94;1719594;82;21034;-42
2021/03/30 00:37:09;;;;;;;23.70;9.23;;;;;;;-1.91;74.40;102370.20;1719708;83;21018;-42
2021/03/30 00:39:36;;;;;;;29.65;10.25;;;;;;;-1.96;74.41;102374.11;1719708;83;21010;-42
2021/03/30 00:42:06;;;;;;;20.77;10.35;;;;;;;-2.00;74.49;102375.97;1719689;83;20967;-42
2021/03/30 00:44:33;;;;;;;26.77;10.45;;;;;;;-2.03;74.68;102371.19;1719732;83;21382;-42
2021/03/30 00:47:02;;;;;;;25.40;10.05;;;;;;;-2.08;74.70;102373.83;1719614;83;21078;-43
2021/03/30 00:49:32;;;;;;;22.22;9.25;;;;;;;-2.12;74.97;102374.42;1719655;83;21010;-42
2021/03/30 00:52:00;;;;;;;25.90;9.93;;;;;;;-2.11;74.91;102375.28;1719729;83;21694;-42
2021/03/30 00:54:37;;;;;;;23.38;10.00;;;;;;;-2.10;75.28;102381.74;1715757;83;20991;-42
2021/03/30 00:57:08;;;;;;;23.35;10.03;;;;;;;-2.10;75.54;102383.01;1718739;83;21363;-42
2021/03/30 00:59:35;;;;;;;31.90;10.05;;;;;;;-2.14;75.76;102382.33;1719639;83;21085;-42
2021/03/30 01:02:04;;;;;;;15.80;9.28;;;;;;;-2.20;75.89;102382.80;1719617;82;21594;-41
2021/03/30 01:04:32;;;;;;;22.40;10.03;;;;;;;-2.25;75.97;102381.63;1719661;83;21002;-41
2021/03/30 01:07:01;;;;;;;19.17;10.18;;;;;;;-2.31;76.30;102382.10;1719665;83;21009;-42
2021/03/30 01:09:59;;;;;;;23.65;10.03;;;;;;;-2.35;76.49;102387.77;1719641;83;21007;-42
2021/03/30 01:12:38;;;;;;;25.08;10.10;;;;;;;-2.42;76.78;102380.91;1719673;82;21029;-41
2021/03/30 01:15:45;;;;;;;25.70;9.58;;;;;;;-2.48;77.12;102378.47;1710429;83;21063;-42
2021/03/30 01:18:21;;;;;;;17.17;9.15;;;;;;;-2.49;77.36;102384.69;1706314;84;21822;-42
2021/03/30 01:21:07;;;;;;;21.85;9.53;;;;;;;-2.52;77.87;102387.92;1706063;84;21126;-42
2021/03/30 01:24:03;;;;;;;24.82;10.23;;;;;;;-2.55;77.85;102386.83;1706312;83;22114;-42
2021/03/30 01:26:41;;;;;;;22.15;10.23;;;;;;;-2.60;78.04;102388.67;1706052;84;20971;-42
2021/03/30 01:29:22;;;;;;;19.73;10.32;;;;;;;-2.64;78.47;102390.52;1706123;83;21023;-41
2021/03/30 01:32:00;;;;;;;26.68;10.55;;;;;;;-2.69;78.65;102393.11;1706091;83;20963;-43
2021/03/30 01:34:27;;;;;;;31.12;12.00;;;;;;;-2.71;78.98;102392.54;1706234;84;21039;-40
2021/03/30 01:36:57;;;;;;;21.57;11.10;;;;;;;-2.76;79.10;102395.65;1706281;84;21386;-41
2021/03/30 01:39:25;;;;;;;24.20;10.95;;;;;;;-2.77;79.28;102393.89;1686525;84;20924;-41
2021/03/30 01:41:53;;;;;;;24.77;11.73;;;;;;;-2.79;79.25;102402.16;1706370;84;20956;-41
2021/03/30 01:44:24;;;;;;;24.07;11.68;;;;;;;-2.79;79.56;102401.75;1706187;84;21199;-41
2021/03/30 01:46:52;;;;;;;29.35;11.95;;;;;;;-2.79;79.73;102402.16;1706359;83;21468;-41
2021/03/30 01:49:22;;;;;;;28.02;11.90;;;;;;;-2.82;79.69;102404.09;1686399;84;21391;-41
2021/03/30 01:51:49;;;;;;;32.50;12.73;;;;;;;-2.87;79.78;102406.70;1706299;84;20960;-41
2021/03/30 01:54:17;;;;;;;31.65;12.20;;;;;;;-2.89;79.99;102399.38;1706266;83;20928;-41
2021/03/30 01:56:45;;;;;;;34.53;12.88;;;;;;;-2.92;80.05;102399.19;1706273;83;21695;-41
2021/03/30 01:59:14;;;;;;;36.73;14.23;;;;;;;-2.95;80.14;102401.52;1706242;83;20951;-41
2021/03/30 02:01:42;;;;;;;28.75;12.28;;;;;;;-2.99;80.19;102404.22;1706195;82;21441;-42
2021/03/30 02:04:09;;;;;;;34.00;14.33;;;;;;;-3.03;80.24;102407.31;1706196;84;21007;-43
2021/03/30 02:06:37;;;;;;;34.98;14.43;;;;;;;-3.06;80.35;102403.31;1706253;82;21015;-43
2021/03/30 02:09:11;;;;;;;30.40;12.50;;;;;;;-3.09;80.38;102396.36;1706312;84;20999;-42
2021/03/30 02:11:47;;;;;;;35.00;13.30;;;;;;;-3.11;80.36;102398.32;1706260;84;21575;-43
2021/03/30 02:14:09;;;;;;;35.10;13.93;;;;;;;-3.14;80.45;102404.05;1705477;83;21153;-41
2021/03/30 02:17:02;;;;;;;32.17;12.95;;;;;;;-3.17;80.57;102399.63;1706164;84;21007;-42
2021/03/30 02:20:00;;;;;;;37.25;13.35;;;;;;;-3.18;80.69;102399.55;1706304;83;21074;-42
2021/03/30 02:22:35;;;;;;;31.10;12.90;;;;;;;-3.22;80.77;102399.70;1706185;82;21591;-42
2021/03/30 02:25:06;;;;;;;33.33;14.25;;;;;;;-3.23;80.96;102405.55;1706431;84;21662;-42
2021/03/30 02:27:36;;;;;;;33.80;13.45;;;;;;;-3.26;80.96;102402.80;1706259;83;21208;-41
2021/03/30 02:30:06;;;;;;;38.15;13.98;;;;;;;-3.29;81.03;102405.50;1706160;82;21043;-42
2021/03/30 02:32:33;;;;;;;40.28;13.65;;;;;;;-3.34;81.08;102406.06;1706305;82;20935;-42
2021/03/30 02:35:04;;;;;;;36.33;13.98;;;;;;;-3.38;81.13;102416.77;1706209;84;21091;-42
2021/03/30 02:37:33;;;;;;;30.77;14.38;;;;;;;-3.42;81.15;102415.16;1706297;84;20940;-42
2021/03/30 02:40:03;;;;;;;35.92;14.03;;;;;;;-3.46;81.36;102422.95;1686503;84;22299;-43
2021/03/30 02:42:30;;;;;;;33.25;13.90;;;;;;;-3.48;81.48;102421.56;1706299;83;21493;-42
2021/03/30 02:44:58;;;;;;;36.73;14.40;;;;;;;-3.48;81.54;102424.09;1706179;84;21078;-43
2021/03/30 02:47:26;;;;;;;32.60;13.20;;;;;;;-3.49;81.65;102428.67;1706183;84;20943;-43
2021/03/30 02:49:54;;;;;;;38.83;14.90;;;;;;;-3.52;81.65;102428.45;1706220;84;20934;-43
2021/03/30 02:52:24;;;;;;;40.50;13.32;;;;;;;-3.56;81.68;102425.58;1706211;82;21392;-43
2021/03/30 02:54:51;;;;;;;37.63;14.05;;;;;;;-3.61;81.79;102429.08;1706125;83;20979;-43
2021/03/30 02:57:19;;;;;;;32.50;13.95;;;;;;;-3.64;81.85;102428.87;1706349;84;20967;-42
2021/03/30 02:59:47;;;;;;;35.00;13.70;;;;;;;-3.66;81.90;102426.61;1706133;82;21160;-43
2021/03/30 03:02:14;;;;;;;29.57;13.05;;;;;;;-3.67;82.03;102434.95;1706223;84;21008;-42
2021/03/30 03:04:47;;;;;;;49.60;14.98;;;;;;;-3.70;82.03;102441.06;1706182;83;21366;-42
2021/03/30 03:07:12;;;;;;;36.00;14.13;;;;;;;-3.69;82.19;102442.82;1706081;84;21047;-42
2021/03/30 03:09:41;;;;;;;51.88;16.62;;;;;;;-3.67;82.44;102442.54;1706195;83;20936;-41
2021/03/30 03:12:11;;;;;;;36.42;14.43;;;;;;;-3.65;82.46;102431.77;1706171;82;21102;-41
2021/03/30 03:14:41;;;;;;;38.08;13.50;;;;;;;-3.66;82.46;102436.34;1709160;83;20967;-41
2021/03/30 03:17:09;;;;;;;34.78;13.10;;;;;;;-3.68;82.55;102440.78;1719836;83;22345;-42
2021/03/30 03:19:36;;;;;;;36.20;13.58;;;;;;;-3.68;82.73;102434.08;1719644;83;21643;-42
2021/03/30 03:22:05;;;;;;;33.45;14.10;;;;;;;-3.63;82.88;102439.48;1719693;83;20943;-41
2021/03/30 03:24:32;;;;;;;40.40;13.28;;;;;;;-3.63;82.89;102442.88;1719737;83;21081;-41
2021/03/30 03:27:00;;;;;;;34.88;13.65;;;;;;;-3.62;82.98;102445.05;1719777;82;21684;-42
2021/03/30 03:29:28;;;;;;;29.92;13.93;;;;;;;-3.62;82.86;102443.37;1693482;83;21221;-42
2021/03/30 03:31:56;;;;;;;31.80;13.20;;;;;;;-3.63;82.84;102445.41;1648222;83;21074;-41
2021/03/30 03:34:23;;;;;;;28.90;13.03;;;;;;;-3.62;83.00;102448.84;1719663;83;20974;-41
2021/03/30 03:36:51;;;;;;;30.65;13.38;;;;;;;-3.58;83.15;102453.34;1719703;83;20903;-41
2021/03/30 03:39:19;;;;;;;26.23;12.05;;;;;;;-3.55;83.08;102451.03;1692900;83;20994;-41
2021/03/30 03:41:49;;;;;;;39.33;13.75;;;;;;;-3.54;83.06;102448.99;1719736;83;21380;-41
2021/03/30 03:44:17;;;;;;;62.50;13.83;;;;;;;-3.54;82.99;102455.70;1719688;83;21035;-41
2021/03/30 03:46:50;;;;;;;40.12;14.18;;;;;;;-3.55;82.98;102457.36;1719746;83;21038;-41
2021/03/30 03:49:18;;;;;;;35.40;13.88;;;;;;;-3.54;83.02;102459.49;1719734;83;21587;-42
2021/03/30 03:52:00;;;;;;;42.65;14.07;;;;;;;-3.52;83.07;102460.11;1719652;83;21030;-42
2021/03/30 03:54:28;;;;;;;36.98;14.23;;;;;;;-3.47;83.19;102457.92;1714104;83;21209;-41
2021/03/30 03:57:22;;;;;;;38.50;14.15;;;;;;;-3.37;83.34;102467.05;1719670;83;21054;-41
2021/03/30 03:59:50;;;;;;;45.90;13.55;;;;;;;-3.28;83.30;102462.99;1719800;82;21505;-41
2021/03/30 04:02:24;;;;;;;31.52;12.50;;;;;;;-3.15;83.33;102465.63;1719656;83;21039;-41
2021/03/30 04:05:14;;;;;;;37.88;13.13;;;;;;;-2.99;83.26;102466.72;1719788;83;21044;-41
2021/03/30 04:07:55;;;;;;;51.95;13.40;;;;;;;-2.81;83.23;102467.09;1719656;83;21376;-42
2021/03/30 04:10:25;;;;;;;30.27;13.18;;;;;;;-2.58;83.14;102472.45;1719634;83;21034;-42
2021/03/30 04:12:52;;;;;;;30.27;12.95;;;;;;;-2.36;82.91;102465.92;1719744;83;21019;-42
2021/03/30 04:15:24;;;;;;;33.55;13.32;;;;;;;-2.14;82.67;102469.00;1714484;83;20916;-42
2021/03/30 04:17:53;;;;;;;44.20;14.90;;;;;;;-1.93;82.42;102467.87;1706246;84;20960;-43
2021/03/30 04:20:21;;;;;;;37.23;15.45;;;;;;;-1.70;82.10;102468.85;1706160;84;21328;-42
2021/03/30 04:22:55;;;;;;;38.67;16.60;;;;;;;-1.52;81.61;102471.30;1706073;83;21004;-42
2021/03/30 04:25:22;;;;;;;33.90;15.48;;;;;;;-1.31;81.13;102479.80;1706201;84;21592;-42
2021/03/30 04:27:49;;;;;;;34.05;14.93;;;;;;;-1.14;80.42;102473.59;1706108;84;21174;-42
2021/03/30 04:30:19;;;;;;;25.08;12.53;;;;;;;-0.97;79.65;102476.80;1706195;84;20960;-42
2021/03/30 04:32:46;;;;;;;33.13;13.32;;;;;;;-0.82;79.28;102477.27;1706139;82;21389;-43
2021/03/30 04:35:14;;;;;;;25.43;11.97;;;;;;;-0.67;78.45;102474.36;1706088;84;21038;-42
2021/03/30 04:37:42;;;;;;;26.70;11.95;;;;;;;-0.49;77.85;102480.07;1706156;84;20916;-42
2021/03/30 04:42:13;;;;;;;20.52;10.58;;;;;;;-0.03;76.27;102485.31;1803525;79;22100;-41
2021/03/30 04:45:16;;;;;;;26.65;11.10;;;;;;;0.15;75.47;102483.35;1757781;81;21633;-43
2021/03/30 04:47:50;;;;;;;22.10;12.00;;;;;;;0.47;74.73;102493.20;1757749;81;21373;-44
2021/03/30 04:51:15;;;;;;;26.12;12.40;;;;;;;0.71;74.15;102486.42;1757661;81;21088;-43
2021/03/30 04:54:10;;;;;;;27.67;11.68;;;;;;;0.99;73.48;102483.67;1751506;81;20927;-44
2021/03/30 04:57:40;;;;;;;29.63;12.68;;;;;;;1.29;72.60;102494.16;1756808;81;21511;-44
2021/03/30 05:01:06;;;;;;;36.65;16.60;;;;;;;1.54;71.72;102490.33;1756965;81;21083;-44
2021/03/30 05:04:33;;;;;;;25.90;13.15;;;;;;;1.75;69.85;102491.81;1757746;81;21022;-44
2021/03/30 05:08:03;;;;;;;29.95;13.20;;;;;;;1.89;68.47;102493.79;1749974;81;20955;-44
2021/03/30 05:11:35;;;;;;;24.85;11.70;;;;;;;1.91;67.49;102491.33;1755716;81;21025;-42
2021/03/30 05:15:29;;;;;;;20.85;11.85;;;;;;;1.96;67.19;102492.42;1756528;81;21085;-44
2021/03/30 05:18:37;;;;;;;25.82;12.35;;;;;;;1.96;66.65;102493.31;1746914;78;27049;-43
2021/03/30 05:22:18;;;;;;;25.12;12.85;;;;;;;1.95;67.20;102496.67;1715462;82;20942;-42
2021/03/30 05:25:58;;;;;;;23.10;10.95;;;;;;;2.06;66.96;102487.37;1678056;83;20950;-41
2021/03/30 05:29:54;;;;;;;26.10;10.88;;;;;;;2.10;66.44;102495.66;1710744;83;21108;-44
2021/03/30 05:33:26;;;;;;;20.05;10.88;;;;;;;2.15;66.63;102500.20;1713253;83;20958;-45
2021/03/30 05:36:47;;;;;;;;;;;;;;;2.22;66.33;102495.39;1688746;83;20986;-44
2021/03/30 05:39:15;;;;;;;27.80;10.95;;;;;;;2.26;66.60;102495.62;1715533;83;20227;-44
2021/03/30 05:41:44;;;;;;;24.80;11.65;;;;;;;2.30;66.61;102500.07;1701996;83;21264;-42
2021/03/30 05:44:14;;;;;;;24.18;11.43;;;;;;;2.36;66.41;102505.00;1701293;83;21472;-42
2021/03/30 05:46:45;;;;;;;24.12;12.35;;;;;;;2.41;66.25;102497.17;1701299;83;21431;-41
2021/03/30 05:49:13;;;;;;;31.27;11.83;;;;;;;2.47;65.36;102504.23;1701309;83;20951;-41
2021/03/30 05:51:43;;;;;;;23.62;12.00;;;;;;;2.46;65.35;102516.16;1701367;83;21172;-43
2021/03/30 05:54:10;;;;;;;27.02;10.75;;;;;;;2.50;65.68;102517.16;1701366;84;21345;-44
2021/03/30 05:56:40;;;;;;;24.52;11.70;;;;;;;2.58;65.41;102511.62;1701191;83;21073;-42
2021/03/30 05:59:07;;;;;;;27.62;13.10;;;;;;;2.66;65.59;102517.10;1681746;84;21646;-43
2021/03/30 06:01:38;;;;;;;32.93;12.75;;;;;;;2.79;64.95;102513.44;1701164;83;21091;-42
2021/03/30 06:04:06;;;;;;;33.13;13.32;;;;;;;2.82;64.58;102515.28;1701304;84;21022;-42
2021/03/30 06:06:36;;;;;;;40.00;12.95;;;;;;;2.92;64.86;102517.86;1701276;83;21390;-42
2021/03/30 06:09:06;;;;;;;22.77;12.95;;;;;;;3.06;64.39;102512.09;1681795;84;21045;-43
2021/03/30 06:11:35;;;;;;;21.95;12.10;;;;;;;3.19;63.74;102511.83;1701293;84;21239;-44
2021/03/30 06:14:05;;;;;;;25.35;11.93;;;;;;;3.26;63.58;102514.27;1701231;84;21042;-43
2021/03/30 06:16:39;;;;;;;25.70;11.63;;;;;;;3.35;63.74;102511.25;1706554;83;21151;-44
2021/03/30 06:19:12;;;;;;;31.23;12.05;;;;;;;3.50;62.80;102509.77;1742271;82;21011;-42
2021/03/30 06:21:43;;;;;;;22.77;10.38;;;;;;;3.58;62.47;102509.30;1741898;82;21062;-44
2021/03/30 06:24:26;;;;;;;23.55;11.18;;;;;;;3.69;62.14;102507.59;1742037;82;21227;-45
2021/03/30 06:26:59;;;;;;;26.33;10.90;;;;;;;3.76;62.38;102507.45;1741964;82;20951;-43
2021/03/30 06:29:34;;;;;;;19.12;11.05;;;;;;;3.91;62.42;102509.78;1738553;82;20964;-43
2021/03/30 06:32:08;;;;;;;19.23;9.30;;;;;;;4.01;61.42;102510.23;1741438;82;21322;-43
2021/03/30 06:34:42;;;;;;;20.20;10.58;;;;;;;4.05;60.93;102512.92;1741552;82;21014;-42
2021/03/30 06:37:40;;;;;;;27.73;10.90;;;;;;;4.06;61.23;102508.27;1741423;82;20963;-42
2021/03/30 06:40:25;;;;;;;24.98;11.48;;;;;;;4.15;60.92;102509.91;1741377;82;21036;-43
2021/03/30 06:42:57;;;;;;;22.55;10.72;;;;;;;4.24;60.70;102516.72;1741567;82;21574;-41
2021/03/30 06:45:28;;;;;;;28.20;11.20;;;;;;;4.30;60.56;102511.83;1741466;82;21358;-44
2021/03/30 06:48:03;;;;;;;23.57;10.48;;;;;;;4.40;60.06;102517.31;1768253;80;20919;-45
2021/03/30 06:50:37;;;;;;;23.15;9.90;;;;;;;4.42;60.11;102518.25;1719227;82;21698;-42
2021/03/30 06:53:14;;;;;;;25.00;10.38;;;;;;;4.39;59.55;102514.28;1741413;82;20962;-42
2021/03/30 06:55:48;;;;;;;25.35;11.70;;;;;;;4.36;60.46;102524.42;1741423;82;21067;-44
2021/03/30 06:58:17;;;;;;;23.77;10.20;;;;;;;4.51;60.53;102517.75;1741475;82;21193;-44
2021/03/30 07:00:45;;;;;;;19.15;10.43;;;;;;;4.63;60.23;102525.05;1741398;82;21082;-43
2021/03/30 07:03:17;;;;;;;28.65;10.88;;;;;;;4.76;60.33;102519.60;1741366;82;20924;-43
2021/03/30 07:05:47;;;;;;;17.17;10.98;;;;;;;4.92;59.36;102517.60;1741463;82;21456;-42
2021/03/30 07:08:21;;;;;;;23.50;9.28;;;;;;;4.98;59.36;102521.71;1741475;82;20948;-43
2021/03/30 07:10:53;;;;;;;21.27;10.20;;;;;;;5.14;59.05;102517.59;1741429;82;21365;-44
2021/03/30 07:13:23;;;;;;;20.05;9.88;;;;;;;5.29;58.50;102524.13;1741497;82;20975;-44
2021/03/30 07:15:57;;;;;;;24.15;10.00;;;;;;;5.46;58.01;102532.44;1741430;82;21311;-42
2021/03/30 07:18:43;;;;;;;24.63;9.95;;;;;;;5.46;58.01;102532.44;1738998;82;21137;-44
2021/03/30 07:21:21;;;;;;;21.60;9.43;;;;;;;5.68;57.82;102527.64;1738648;82;20933;-45
2021/03/30 07:23:58;;;;;;;19.75;9.80;;;;;;;5.82;57.17;102538.83;1738472;82;22119;-46
2021/03/30 07:26:36;;;;;;;17.25;9.80;;;;;;;5.81;56.88;102529.37;1733394;82;20955;-43
2021/03/30 07:29:13;;;;;;;24.82;9.63;;;;;;;5.86;57.20;102519.72;1738509;82;21067;-44
2021/03/30 07:32:12;;;;;;;19.82;10.13;;;;;;;5.95;56.41;102526.88;1738451;82;21638;-45
2021/03/30 07:35:16;;;;;;;19.75;9.48;;;;;;;6.01;56.41;102532.64;1738529;82;21019;-44
2021/03/30 07:38:19;;;;;;;21.35;9.55;;;;;;;6.01;56.41;102532.64;1738507;82;21254;-45
2021/03/30 07:40:48;;;;;;;14.33;8.85;;;;;;;6.07;56.68;102537.12;1738442;82;20907;-42
2021/03/30 07:43:27;;;;;;;25.60;9.53;;;;;;;6.18;55.98;102535.77;1738500;82;21026;-41
2021/03/30 07:45:57;;;;;;;20.92;9.20;;;;;;;6.26;56.32;102540.78;1737743;82;20939;-43
2021/03/30 07:48:28;;;;;;;19.87;8.30;;;;;;;6.44;56.24;102540.89;1726570;81;21070;-44
2021/03/30 07:53:59;;;;;;;21.93;8.50;;;;;;;6.83;55.21;102531.39;1812120;76;27938;-42
2021/03/30 07:56:48;;;;;;;20.97;8.33;;;;;;;7.10;55.08;102533.47;1755076;79;20994;-43
2021/03/30 07:59:46;;;;;;;22.32;8.23;;;;;;;7.33;53.84;102536.70;1793103;79;21188;-44
2021/03/30 08:02:19;;;;;;;11.90;7.50;;;;;;;7.48;52.40;102538.42;1705925;82;21082;-44
2021/03/30 08:05:08;;;;;;;15.58;7.05;;;;;;;7.62;52.33;102530.18;1904005;74;22759;-43
2021/03/30 08:07:55;;;;;;;11.25;7.10;;;;;;;7.69;51.11;102530.80;1785509;78;21444;-41
2021/03/30 08:10:35;;;;;;;11.18;7.17;;;;;;;7.69;51.11;102530.80;1783614;79;21347;-45
2021/03/30 08:13:27;;;;;;;11.18;7.03;;;;;;;7.94;50.51;102534.45;1781885;80;21065;-45
2021/03/30 08:16:05;;;;;;;18.48;7.28;;;;;;;7.79;51.07;102540.94;1786078;80;20931;-44
2021/03/30 08:18:38;;;;;;;10.45;7.62;;;;;;;7.87;51.00;102541.14;1824477;77;21010;-44
2021/03/30 08:21:17;;;;;;;12.05;7.00;;;;;;;8.11;50.29;102538.34;1762086;80;21066;-45
2021/03/30 08:24:03;;;;;;;12.20;8.53;;;;;;;8.22;49.06;102539.90;1792677;78;21191;-45
2021/03/30 08:26:35;;;;;;;11.20;7.95;;;;;;;8.32;47.99;102534.52;1782494;79;24485;-43
2021/03/30 08:29:08;;;;;;;21.05;7.72;;;;;;;8.41;47.96;102535.16;1774988;78;21599;-45
2021/03/30 08:31:42;;;;;;;16.85;6.72;;;;;;;8.38;48.99;102532.11;1801033;78;20968;-43
2021/03/30 08:34:22;;;;;;;9.78;6.83;;;;;;;8.51;48.65;102529.43;1788103;79;20979;-46
2021/03/30 08:36:55;;;;;;;12.20;5.62;;;;;;;8.73;47.68;102529.49;1778459;78;21378;-44
2021/03/30 08:39:28;;;;;;;42.43;17.15;;;;;;;8.97;47.32;102522.23;1793763;78;20907;-43
2021/03/30 08:42:02;;;;;;;11.03;6.05;;;;;;;9.26;45.04;102529.74;1753782;80;21032;-45
2021/03/30 08:44:42;;;;;;;6.87;5.10;;;;;;;9.27;45.11;102528.90;1749049;82;21003;-45
2021/03/30 08:47:26;;;;;;;8.98;6.65;;;;;;;9.28;45.31;102528.91;1749140;80;21276;-45
2021/03/30 08:50:23;;;;;;;10.80;6.03;;;;;;;9.14;45.50;102528.63;1736016;81;21214;-41
2021/03/30 08:52:57;;;;;;;9.53;6.35;;;;;;;9.06;45.33;102522.45;1673956;84;20998;-44
2021/03/30 08:55:30;;;;;;;11.55;6.42;;;;;;;8.66;46.37;102531.89;1818866;77;20977;-42
2021/03/30 08:57:59;;;;;;;10.23;6.80;;;;;;;8.67;46.68;102529.77;1747455;80;21061;-44
2021/03/30 09:00:27;;;;;;;8.70;5.35;;;;;;;8.98;46.63;102525.30;1777939;79;21614;-43
2021/03/30 09:03:06;;;;;;;9.88;5.87;;;;;;;9.28;45.74;102533.23;1785944;79;22149;-42
2021/03/30 09:05:40;;;;;;;21.52;7.00;;;;;;;9.61;45.98;102524.38;1759731;80;21075;-43
2021/03/30 09:08:12;;;;;;;8.55;5.70;;;;;;;9.85;43.59;102520.48;1760883;80;21030;-43
2021/03/30 09:10:42;;;;;;;8.75;5.78;;;;;;;9.97;43.26;102522.42;1757635;79;21022;-45
2021/03/30 09:13:14;;;;;;;9.70;6.75;;;;;;;10.13;42.95;102522.25;1747341;80;21258;-44
2021/03/30 09:15:44;;;;;;;9.35;5.70;;;;;;;10.16;42.85;102522.30;1762720;80;21602;-45
2021/03/30 09:18:24;;;;;;;5.10;4.42;;;;;;;10.11;42.68;102521.36;1784338;79;21094;-42
2021/03/30 09:21:13;;;;;;;6.62;5.40;;;;;;;10.13;42.08;102523.54;1744715;80;20995;-45
2021/03/30 09:23:42;;;;;;;11.70;5.40;;;;;;;10.38;42.20;102523.94;1759066;80;21032;-43
2021/03/30 09:26:13;;;;;;;4.22;3.83;;;;;;;10.29;41.84;102517.78;1777019;80;20995;-43
2021/03/30 09:28:43;;;;;;;4.95;4.30;;;;;;;10.06;41.25;102518.27;1756618;80;22202;-45
2021/03/30 09:31:12;;;;;;;10.05;4.40;;;;;;;9.98;41.06;102520.28;1774648;80;21018;-44
2021/03/30 09:33:40;;;;;;;10.10;5.53;;;;;;;9.64;41.48;102519.25;1733039;80;21336;-43
2021/03/30 09:36:12;;;;;;;11.35;5.00;;;;;;;9.58;42.39;102522.59;1742234;80;21061;-43
2021/03/30 09:38:56;;;;;;;8.08;4.97;;;;;;;9.74;41.94;102519.89;1774593;80;21022;-43
2021/03/30 09:41:40;;;;;;;6.17;3.70;;;;;;;9.68;42.25;102519.75;1775514;79;21383;-43
2021/03/30 09:44:08;;;;;;;6.05;3.87;;;;;;;9.73;41.04;102513.38;1786541;79;21109;-44
2021/03/30 09:46:37;;;;;;;5.45;3.30;;;;;;;9.76;39.83;102522.08;1756682;80;21086;-45
2021/03/30 09:49:09;;;;;;;7.97;3.40;;;;;;;9.52;39.83;102522.92;1740590;79;21030;-45
2021/03/30 09:51:38;;;;;;;7.05;2.67;;;;;;;9.58;39.94;102519.14;1782900;79;21009;-45
2021/03/30 09:54:25;;;;;;;13.05;3.52;;;;;;;9.76;39.21;102520.78;1760389;80;22561;-46
2021/03/30 09:57:06;;;;;;;11.38;3.20;;;;;;;10.11;39.10;102513.59;1775849;79;21630;-45
2021/03/30 09:59:46;;;;;;;5.78;3.55;;;;;;;10.64;37.74;102499.77;1824682;76;22710;-45
2021/03/30 10:02:16;;;;;;;6.08;2.90;;;;;;;10.81;36.89;102513.34;1796125;79;21566;-42
2021/03/30 10:04:44;;;;;;;3.35;2.70;;;;;;;10.84;37.35;102504.32;1765069;79;21408;-44
2021/03/30 10:07:19;;;;;;;3.80;3.10;;;;;;;10.72;38.21;102505.91;1720859;82;21033;-42
2021/03/30 10:10:09;;;;;;;3.37;2.95;;;;;;;10.67;37.61;102497.21;1738148;81;21160;-43
2021/03/30 10:13:04;;;;;;;6.70;3.10;;;;;;;10.23;37.54;102506.04;1791544;79;21065;-46
2021/03/30 10:15:40;;;;;;;4.00;3.02;;;;;;;10.04;38.25;102495.80;1800389;77;21034;-44
2021/03/30 10:18:10;;;;;;;11.48;5.83;;;;;;;10.23;37.37;102501.27;1805114;79;21181;-44
2021/03/30 10:20:46;;;;;;;8.95;5.53;;;;;;;10.18;37.37;102501.19;1797915;79;20991;-44
2021/03/30 10:23:25;;;;;;;7.53;3.40;;;;;;;10.12;38.14;102498.51;1741074;81;21538;-43
2021/03/30 10:25:55;;;;;;;5.83;2.35;;;;;;;10.29;37.13;102486.72;1727441;82;21580;-42
2021/03/30 10:28:26;;;;;;;22.60;3.60;;;;;;;10.54;37.24;102486.22;1790342;79;20979;-45
2021/03/30 10:30:57;;;;;;;7.25;3.12;;;;;;;10.90;36.50;102475.48;1790068;79;22514;-44
2021/03/30 10:33:48;;;;;;;9.25;2.37;;;;;;;10.82;36.56;102481.00;1810356;79;20946;-44
2021/03/30 10:36:16;;;;;;;8.50;2.55;;;;;;;10.98;38.17;102482.06;1795118;79;21021;-42
2021/03/30 10:39:08;;;;;;;6.75;2.98;;;;;;;11.18;35.40;102477.09;1798123;78;21208;-43
2021/03/30 10:41:39;;;;;;;4.97;3.08;;;;;;;11.23;37.27;102474.56;1805557;79;21057;-45
2021/03/30 10:44:07;;;;;;;7.15;3.75;;;;;;;11.40;37.28;102470.85;1792854;78;21342;-43
2021/03/30 10:46:49;;;;;;;10.85;4.17;;;;;;;11.44;36.50;102473.06;1794959;79;21053;-42
2021/03/30 10:49:16;;;;;;;9.30;4.22;;;;;;;11.64;37.12;102470.66;1791644;79;21057;-45
2021/03/30 10:51:45;;;;;;;6.83;3.40;;;;;;;11.82;35.78;102460.00;1800761;77;21392;-44
2021/03/30 10:54:17;;;;;;;11.45;3.40;;;;;;;11.88;35.01;102463.94;1791733;79;21483;-45
2021/03/30 10:56:44;;;;;;;13.55;6.72;;;;;;;11.45;34.84;102461.39;1803317;77;21366;-42
2021/03/30 10:59:14;;;;;;;20.72;8.63;;;;;;;11.03;35.90;102464.84;1754633;80;21057;-43
2021/03/30 11:01:42;;;;;;;24.02;8.63;;;;;;;10.97;36.46;102457.00;1759040;79;21042;-43
2021/03/30 11:04:10;;;;;;;16.50;7.40;;;;;;;10.86;37.37;102454.69;1807910;77;21010;-43
2021/03/30 11:06:38;;;;;;;29.75;11.95;;;;;;;10.92;37.44;102459.97;1810364;78;21026;-44
2021/03/30 11:09:07;;;;;;;37.93;18.37;;;;;;;10.93;36.21;102457.82;1819028;77;21366;-45
2021/03/30 11:11:35;;;;;;;11.55;6.22;;;;;;;10.48;35.95;102456.81;1806609;78;21026;-42
2021/03/30 11:14:05;;;;;;;19.27;7.15;;;;;;;10.24;39.52;102453.42;1813789;78;21021;-43
2021/03/30 11:16:32;;;;;;;18.20;8.43;;;;;;;10.57;38.03;102452.19;1816094;78;20974;-42
2021/03/30 11:19:00;;;;;;;8.05;4.28;;;;;;;10.96;36.09;102443.60;1798015;78;21026;-44
2021/03/30 11:21:29;;;;;;;22.73;8.38;;;;;;;10.99;34.86;102445.34;1753729;79;21434;-43
2021/03/30 11:26:37;;;;;;;9.45;5.80;;;;;;;11.31;35.31;102424.10;1880581;74;22748;-44
2021/03/30 11:29:05;;;;;;;7.60;3.37;;;;;;;11.43;35.51;102424.20;1847264;77;21017;-44
2021/03/30 11:37:16;;;;;;;5.92;3.30;;;;;;;11.29;35.18;102424.52;1777467;79;21011;-44
2021/03/30 11:39:34;;;;;;;11.03;4.03;;;;;;;11.57;33.62;102428.66;1813529;78;21710;-44
2021/03/30 11:42:04;;;;;;;5.80;3.37;;;;;;;11.66;34.04;102425.28;1773921;80;21007;-46
2021/03/30 11:44:33;;;;;;;4.65;3.25;;;;;;;11.82;33.47;102414.59;1753150;80;21421;-46
2021/03/30 11:47:00;;;;;;;10.60;3.90;;;;;;;12.10;33.67;102414.38;1733463;80;20996;-44
2021/03/30 11:49:30;;;;;;;7.20;3.20;;;;;;;12.26;32.71;102412.77;1750866;80;21041;-45
2021/03/30 11:51:57;;;;;;;9.48;3.37;;;;;;;12.16;34.07;102412.25;1749709;81;21014;-43
2021/03/30 11:54:25;;;;;;;7.92;4.30;;;;;;;12.07;33.13;102419.14;1746607;82;21089;-45
2021/03/30 11:56:52;;;;;;;9.50;3.70;;;;;;;12.12;33.77;102415.70;1766593;79;21365;-46
2021/03/30 11:59:20;;;;;;;15.63;4.40;;;;;;;12.12;34.00;102416.55;1768610;79;21034;-44
2021/03/30 12:01:48;;;;;;;11.18;3.52;;;;;;;12.11;34.25;102410.06;1774979;79;21022;-45
2021/03/30 12:04:16;;;;;;;9.08;3.20;;;;;;;11.90;34.21;102410.32;1752294;79;20981;-45
2021/03/30 12:06:44;;;;;;;4.83;3.72;;;;;;;11.92;35.00;102406.89;1780653;79;20922;-44
2021/03/30 12:09:11;;;;;;;10.15;3.70;;;;;;;12.35;33.69;102397.22;1779031;79;21453;-47